Time;durP1;ratioP1;P1;durP2;ratioP2;P2;SDS_P1;SDS_P2;PMS_P1;PMS_P2;Temp;Humidity;BMP_temperature;BMP_pressure;BME280_temperature;BME280_humidity;BME280_pressure;Samples;Min_cycle;Max_cycle;Signal;HPM_P1;HPM_P2
2022/04/25 00:00:17;;;;;;;6.40;5.80;;;;;;;7.50;100.00;94814.03;5031000;28;20777;-75
2022/04/25 00:02:43;;;;;;;6.67;5.93;;;;;;;7.57;100.00;94814.44;5030916;28;20859;-75
2022/04/25 00:05:10;;;;;;;5.32;4.90;;;;;;;7.61;100.00;94816.72;5031028;28;20772;-75
2022/04/25 00:07:37;;;;;;;7.15;5.53;;;;;;;7.61;100.00;94821.88;5030880;28;24515;-75
2022/04/25 00:10:06;;;;;;;6.43;5.90;;;;;;;7.63;100.00;94819.19;5030793;28;24458;-76
2022/04/25 00:12:32;;;;;;;6.40;5.80;;;;;;;7.66;100.00;94824.13;5030885;28;20773;-75
2022/04/25 00:14:59;;;;;;;5.75;5.25;;;;;;;7.69;100.00;94826.50;5030961;28;24443;-75
2022/04/25 00:17:26;;;;;;;6.20;5.60;;;;;;;7.67;100.00;94830.94;5030798;28;24841;-76
2022/04/25 00:19:53;;;;;;;7.13;5.90;;;;;;;7.68;100.00;94822.28;5030948;28;20854;-75
2022/04/25 00:22:19;;;;;;;8.05;7.25;;;;;;;7.55;100.00;94819.69;5030308;28;25018;-76
2022/04/25 00:24:47;;;;;;;9.35;8.27;;;;;;;7.54;100.00;94817.22;5030770;28;24423;-76
2022/04/25 00:27:15;;;;;;;8.40;7.68;;;;;;;7.54;100.00;94815.47;5030688;28;24498;-75
2022/04/25 00:29:42;;;;;;;12.20;9.10;;;;;;;7.55;100.00;94821.44;5030537;28;24427;-75
2022/04/25 00:32:08;;;;;;;9.43;8.43;;;;;;;7.50;100.00;94826.91;5030412;28;25055;-75
2022/04/25 00:34:35;;;;;;;9.73;8.30;;;;;;;7.56;100.00;94830.81;5030560;28;24466;-75
2022/04/25 00:37:02;;;;;;;9.52;8.73;;;;;;;7.56;100.00;94828.25;5030641;28;24821;-75
2022/04/25 00:39:29;;;;;;;10.88;9.77;;;;;;;7.50;100.00;94830.31;5030458;28;24853;-75
2022/04/25 00:41:56;;;;;;;11.15;9.55;;;;;;;7.42;100.00;94831.75;5030394;28;24428;-75
2022/04/25 00:44:24;;;;;;;12.13;10.98;;;;;;;7.39;100.00;94842.25;5031128;28;24430;-75
2022/04/25 00:46:54;;;;;;;11.27;10.27;;;;;;;7.38;100.00;94840.56;5030548;28;24443;-75
2022/04/25 00:49:22;;;;;;;11.88;10.68;;;;;;;7.35;100.00;94840.78;5030569;28;24522;-75
2022/04/25 00:51:51;;;;;;;12.23;11.13;;;;;;;7.35;100.00;94846.75;5030417;28;24438;-75
2022/04/25 00:54:18;;;;;;;13.00;11.88;;;;;;;7.34;100.00;94841.69;5030140;28;24531;-75
2022/04/25 00:56:46;;;;;;;13.45;11.98;;;;;;;7.28;100.00;94838.59;5030635;28;24518;-75
2022/04/25 00:59:15;;;;;;;12.80;11.53;;;;;;;7.36;100.00;94840.69;5031237;28;24479;-76
2022/04/25 01:01:43;;;;;;;12.87;11.67;;;;;;;7.30;100.00;94842.81;5032437;28;24508;-76
2022/04/25 01:04:10;;;;;;;19.38;13.70;;;;;;;7.38;100.00;94844.00;5033071;28;24439;-75
2022/04/25 01:06:37;;;;;;;14.55;13.05;;;;;;;7.34;100.00;94837.41;5034819;28;24655;-75
2022/04/25 01:09:03;;;;;;;16.08;13.45;;;;;;;7.35;100.00;94835.63;5033885;28;24455;-75
2022/04/25 01:11:30;;;;;;;13.95;12.75;;;;;;;7.36;100.00;94837.28;5034113;28;24427;-75
2022/04/25 01:13:56;;;;;;;13.80;12.60;;;;;;;7.37;100.00;94839.75;5034126;28;24439;-75
2022/04/25 01:16:23;;;;;;;13.43;12.07;;;;;;;7.39;100.00;94839.66;5033966;28;24422;-76
2022/04/25 01:18:51;;;;;;;14.70;13.30;;;;;;;7.36;100.00;94838.09;5033948;28;24420;-75
2022/04/25 01:21:21;;;;;;;13.30;12.13;;;;;;;7.37;100.00;94831.19;5033910;28;25019;-75
2022/04/25 01:29:17;;;;;;;14.35;12.90;;;;;;;7.30;100.00;94841.06;5033763;28;24423;-75
2022/04/25 01:31:44;;;;;;;13.60;12.38;;;;;;;7.34;100.00;94844.28;5033560;28;24435;-75
2022/04/25 01:34:10;;;;;;;13.07;11.70;;;;;;;7.32;100.00;94840.97;5033534;28;24489;-75
2022/04/25 01:36:37;;;;;;;13.68;12.38;;;;;;;7.30;100.00;94841.06;5033630;28;24427;-75
2022/04/25 01:39:04;;;;;;;13.32;12.13;;;;;;;7.29;100.00;94839.44;5033506;28;24419;-76
2022/04/25 01:41:31;;;;;;;16.48;13.32;;;;;;;7.16;100.00;94836.00;5033346;28;24431;-75
2022/04/25 01:43:57;;;;;;;14.25;12.95;;;;;;;7.23;100.00;94840.66;5033324;28;24432;-76
2022/04/25 01:46:24;;;;;;;13.27;12.07;;;;;;;7.23;100.00;94842.38;5033555;28;24434;-76
2022/04/25 01:48:50;;;;;;;13.63;12.15;;;;;;;7.23;100.00;94842.38;5033502;28;24482;-76
2022/04/25 01:51:17;;;;;;;14.57;13.07;;;;;;;7.14;100.00;94840.41;5033569;28;24424;-76
2022/04/25 01:53:43;;;;;;;13.67;12.43;;;;;;;7.12;100.00;94837.09;5033191;28;24454;-76
2022/04/25 01:56:11;;;;;;;14.77;12.85;;;;;;;7.17;100.00;94843.63;5033469;28;24424;-76
2022/04/25 01:58:37;;;;;;;14.57;13.18;;;;;;;6.87;100.00;94841.25;5033370;28;24424;-76
2022/04/25 02:01:06;;;;;;;14.77;13.38;;;;;;;6.79;100.00;94849.44;5033278;28;24802;-76
2022/04/25 02:03:34;;;;;;;15.35;14.05;;;;;;;6.75;100.00;94848.00;5032975;28;24435;-76
2022/04/25 02:06:01;;;;;;;15.40;13.90;;;;;;;6.75;100.00;94847.19;5033285;28;20826;-76
2022/04/25 02:08:28;;;;;;;16.67;15.07;;;;;;;6.75;100.00;94849.75;5033078;28;24435;-76
2022/04/25 02:13:39;;;;;;;15.82;14.23;;;;;;;6.65;100.00;94851.22;5032603;28;24435;-75
2022/04/25 02:16:08;;;;;;;16.55;14.98;;;;;;;6.68;100.00;94856.19;5031512;28;24428;-75
2022/04/25 02:18:35;;;;;;;16.52;14.77;;;;;;;6.64;100.00;94855.56;5032992;28;24432;-76
2022/04/25 02:21:01;;;;;;;16.98;15.27;;;;;;;6.59;100.00;94855.00;5033037;28;24455;-75
2022/04/25 02:23:27;;;;;;;16.08;14.60;;;;;;;6.57;100.00;94866.31;5032273;28;24976;-75
2022/04/25 02:25:54;;;;;;;16.55;14.95;;;;;;;6.53;100.00;94866.50;5032478;28;24973;-76
2022/04/25 02:28:20;;;;;;;18.75;15.63;;;;;;;6.52;100.00;94862.25;5032504;28;24976;-75
2022/04/25 02:30:51;;;;;;;20.30;16.38;;;;;;;6.55;100.00;94863.81;5032324;28;24965;-75
2022/04/25 02:33:17;;;;;;;16.52;14.85;;;;;;;6.57;100.00;94858.59;5032371;28;24534;-75
2022/04/25 02:35:44;;;;;;;17.02;15.43;;;;;;;6.56;100.00;94860.31;5032429;28;24980;-75
2022/04/25 02:38:10;;;;;;;16.27;14.88;;;;;;;6.45;100.00;94863.59;5032265;28;24416;-75
2022/04/25 02:40:37;;;;;;;16.17;14.63;;;;;;;6.50;100.00;94863.28;5032063;28;24443;-75
2022/04/25 02:43:03;;;;;;;17.07;15.23;;;;;;;6.42;100.00;94860.38;5032047;28;24770;-75
2022/04/25 02:45:30;;;;;;;17.73;15.15;;;;;;;6.44;100.00;94864.47;5032350;28;24821;-75
2022/04/25 02:47:57;;;;;;;15.40;13.87;;;;;;;6.48;100.00;94868.50;5032330;28;24439;-75
2022/04/25 02:50:24;;;;;;;22.70;20.50;;;;;;;6.36;100.00;94881.31;5032388;28;24424;-75
2022/04/25 02:52:53;;;;;;;18.08;16.30;;;;;;;6.40;100.00;94875.06;5032271;28;24510;-75
2022/04/25 02:55:20;;;;;;;12.83;11.60;;;;;;;6.41;100.00;94879.28;5032093;28;24428;-76
2022/04/25 02:57:46;;;;;;;12.80;11.70;;;;;;;6.36;100.00;94876.97;5032028;28;24985;-76
2022/04/25 03:00:14;;;;;;;14.52;13.15;;;;;;;6.49;100.00;94885.63;5031881;28;24444;-76
2022/04/25 03:02:41;;;;;;;13.95;12.70;;;;;;;6.36;100.00;94874.41;5031297;28;24458;-75
2022/04/25 03:05:09;;;;;;;12.35;11.35;;;;;;;6.28;100.00;94876.63;5031757;28;24443;-75
2022/04/25 03:07:35;;;;;;;13.70;12.50;;;;;;;6.17;100.00;94872.13;5032214;28;24428;-76
2022/04/25 03:10:02;;;;;;;12.00;10.85;;;;;;;6.23;100.00;94878.63;5032074;28;24497;-75
2022/04/25 03:12:29;;;;;;;27.77;12.55;;;;;;;6.09;100.00;94884.63;5031437;28;24427;-75
2022/04/25 03:14:56;;;;;;;92.72;12.30;;;;;;;5.94;100.00;94883.78;5031666;28;24522;-75
2022/04/25 03:17:22;;;;;;;58.50;11.00;;;;;;;5.98;100.00;94887.81;5031729;28;24427;-75
2022/04/25 03:19:49;;;;;;;11.85;10.70;;;;;;;6.05;100.00;94883.97;5031588;28;24440;-75
2022/04/25 03:22:17;;;;;;;47.78;9.68;;;;;;;6.10;100.00;94885.44;5031208;28;24881;-75
2022/04/25 03:24:43;;;;;;;26.80;8.40;;;;;;;6.17;100.00;94889.28;5031584;28;24435;-75
2022/04/25 03:27:10;;;;;;;40.53;8.30;;;;;;;6.22;100.00;94884.69;5030929;28;24933;-75
2022/04/25 03:29:36;;;;;;;15.00;7.55;;;;;;;6.37;100.00;94888.09;5031576;28;24956;-75
2022/04/25 03:32:04;;;;;;;24.57;7.63;;;;;;;6.31;100.00;94889.31;5031435;28;24503;-75
2022/04/25 03:34:30;;;;;;;28.05;9.00;;;;;;;6.37;100.00;94891.50;5031261;28;24424;-75
2022/04/25 03:36:57;;;;;;;18.98;8.23;;;;;;;6.37;100.00;94885.53;5030994;28;24828;-76
2022/04/25 03:39:25;;;;;;;29.23;7.97;;;;;;;6.23;100.00;94884.63;5031179;28;25031;-75
2022/04/25 03:41:52;;;;;;;25.33;8.77;;;;;;;6.15;100.00;94879.09;5030799;28;24444;-75
2022/04/25 03:44:19;;;;;;;26.92;8.40;;;;;;;6.10;100.00;94882.88;5031001;28;24431;-75
2022/04/25 03:46:45;;;;;;;11.93;8.52;;;;;;;6.10;100.00;94883.69;5031077;28;24434;-75
2022/04/25 03:49:13;;;;;;;29.33;9.23;;;;;;;5.89;100.00;94883.16;5031034;28;24415;-76
2022/04/25 03:51:40;;;;;;;16.30;8.65;;;;;;;5.89;100.00;94888.31;5030941;28;24509;-75
2022/04/25 03:54:06;;;;;;;10.05;8.57;;;;;;;5.85;100.00;94891.97;5031014;28;24450;-75
2022/04/25 03:59:18;;;;;;;13.83;9.43;;;;;;;5.62;100.00;94901.00;5030956;28;24854;-75
2022/04/25 04:01:44;;;;;;;11.70;9.07;;;;;;;5.59;100.00;94907.13;5030945;28;24535;-75
2022/04/25 04:04:11;;;;;;;10.43;9.48;;;;;;;5.63;100.00;94912.13;5030661;28;24423;-76
2022/04/25 04:06:37;;;;;;;10.13;9.23;;;;;;;5.68;100.00;94912.69;5031020;28;24523;-76
2022/04/25 04:11:47;;;;;;;9.48;8.68;;;;;;;5.83;100.00;94922.91;5030308;28;24424;-76
2022/04/25 04:14:14;;;;;;;9.32;8.52;;;;;;;5.89;100.00;94914.00;5030523;28;24423;-75
2022/04/25 04:16:42;;;;;;;10.35;9.43;;;;;;;5.92;100.00;94931.84;5030776;28;24423;-76
2022/04/25 04:19:10;;;;;;;10.02;9.20;;;;;;;6.03;100.00;94926.91;5030938;28;24470;-75
2022/04/25 04:21:36;;;;;;;11.88;10.77;;;;;;;6.06;100.00;94931.88;5030206;28;24444;-75
2022/04/25 04:24:03;;;;;;;11.88;10.77;;;;;;;6.13;100.00;94932.34;5030875;28;24424;-75
2022/04/25 04:26:29;;;;;;;25.75;9.52;;;;;;;6.20;100.00;94928.50;5030619;28;24435;-76
2022/04/25 04:28:57;;;;;;;74.37;11.17;;;;;;;6.25;100.00;94925.66;5030373;28;24420;-76
2022/04/25 04:31:24;;;;;;;20.75;10.30;;;;;;;6.23;100.00;94928.34;5030517;28;24412;-75
2022/04/25 04:33:50;;;;;;;26.23;10.75;;;;;;;6.20;100.00;94933.66;5030551;28;24834;-75
2022/04/25 04:36:21;;;;;;;20.40;10.95;;;;;;;6.16;100.00;94941.66;5029829;28;24432;-75
2022/04/25 04:38:48;;;;;;;14.65;11.25;;;;;;;6.19;100.00;94936.28;5028936;28;24809;-75
2022/04/25 04:41:14;;;;;;;11.82;10.73;;;;;;;6.25;100.00;94931.63;5034090;28;24452;-75
2022/04/25 04:43:41;;;;;;;14.95;11.07;;;;;;;6.26;100.00;94935.03;5033451;28;24436;-75
2022/04/25 04:46:09;;;;;;;21.40;12.27;;;;;;;6.21;100.00;94939.63;5033954;28;25077;-74
2022/04/25 04:48:35;;;;;;;15.95;12.20;;;;;;;6.10;100.00;94942.81;5033702;28;24969;-75
2022/04/25 04:51:02;;;;;;;21.15;12.80;;;;;;;6.19;100.00;94944.88;5034767;28;24424;-75
2022/04/25 04:53:28;;;;;;;20.27;12.93;;;;;;;6.23;100.00;94948.06;5034147;28;24845;-74
2022/04/25 04:55:55;;;;;;;14.15;12.68;;;;;;;6.14;100.00;94946.84;5034840;28;24428;-75
2022/04/25 04:58:21;;;;;;;14.77;13.20;;;;;;;6.09;100.00;94959.16;5034189;28;24428;-75
2022/04/25 05:00:48;;;;;;;22.50;12.98;;;;;;;6.11;100.00;94959.88;5034376;28;24450;-74
2022/04/25 05:03:16;;;;;;;33.22;13.35;;;;;;;6.06;100.00;94961.91;5034026;28;24801;-75
2022/04/25 05:05:42;;;;;;;28.38;12.85;;;;;;;5.95;100.00;94965.09;5034247;28;24470;-74
2022/04/25 05:08:09;;;;;;;16.90;13.45;;;;;;;5.89;100.00;94972.28;5032633;28;24482;-75
2022/04/25 05:10:36;;;;;;;24.77;13.60;;;;;;;5.84;100.00;94972.56;5028176;28;24984;-75
2022/04/25 05:13:03;;;;;;;13.55;12.27;;;;;;;5.90;100.00;94968.81;5032826;28;25170;-75
2022/04/25 05:15:30;;;;;;;12.63;11.50;;;;;;;6.00;100.00;94970.78;5020917;28;24447;-75
2022/04/25 05:17:59;;;;;;;13.60;12.32;;;;;;;6.07;100.00;94966.13;5014231;28;24961;-74
2022/04/25 05:20:27;;;;;;;17.42;11.93;;;;;;;6.18;100.00;94970.66;5014087;28;24543;-74
2022/04/25 05:22:54;;;;;;;14.45;12.20;;;;;;;6.35;100.00;94967.94;5013920;28;24424;-74
2022/04/25 05:25:21;;;;;;;17.93;13.23;;;;;;;6.40;100.00;94973.63;5014073;28;24478;-74
2022/04/25 05:27:50;;;;;;;13.80;12.32;;;;;;;6.34;100.00;94980.84;5014308;28;25012;-74
2022/04/25 05:30:17;;;;;;;13.45;12.05;;;;;;;6.19;100.00;94983.44;5014430;28;24416;-75
2022/04/25 05:32:46;;;;;;;11.88;10.88;;;;;;;6.16;100.00;94990.50;5014367;28;24428;-74
2022/04/25 05:35:13;;;;;;;13.93;11.15;;;;;;;6.11;100.00;94988.16;5012693;28;24794;-74
2022/04/25 05:37:41;;;;;;;10.93;10.02;;;;;;;6.18;100.00;94983.50;5033035;28;24957;-74
2022/04/25 05:40:09;;;;;;;12.37;11.17;;;;;;;6.14;100.00;94987.16;5033622;28;24805;-75
2022/04/25 05:42:35;;;;;;;11.63;10.63;;;;;;;6.13;100.00;94999.19;5032470;28;24535;-73
2022/04/25 05:45:04;;;;;;;11.13;10.13;;;;;;;6.24;100.00;94996.00;5034284;28;24785;-74
2022/04/25 05:47:31;;;;;;;12.52;11.27;;;;;;;6.33;100.00;94994.63;5030816;28;24814;-74
2022/04/25 05:52:44;;;;;;;12.43;11.32;;;;;;;6.25;100.00;95001.06;5031790;28;24470;-77
2022/04/25 05:55:10;;;;;;;11.63;10.63;;;;;;;6.31;100.00;95005.03;5033490;28;24988;-75
2022/04/25 05:57:37;;;;;;;12.45;11.35;;;;;;;6.34;100.00;95007.44;5033463;28;24984;-75
2022/04/25 06:00:05;;;;;;;13.23;11.85;;;;;;;6.34;100.00;95010.00;5033932;28;24420;-76
2022/04/25 06:02:32;;;;;;;12.52;11.38;;;;;;;6.46;100.00;95017.00;5032968;28;24452;-75
2022/04/25 06:04:58;;;;;;;11.77;10.68;;;;;;;6.61;100.00;95010.13;5032880;28;24451;-75
2022/04/25 06:07:24;;;;;;;12.35;11.23;;;;;;;6.75;100.00;95009.31;5033339;28;24419;-76
2022/04/25 06:09:52;;;;;;;12.00;11.00;;;;;;;6.68;100.00;95011.41;5032992;28;25007;-76
2022/04/25 06:12:19;;;;;;;12.15;10.95;;;;;;;6.72;100.00;95018.03;5032388;28;24854;-74
2022/04/25 06:14:48;;;;;;;11.40;10.40;;;;;;;6.78;100.00;95017.63;5032574;28;24451;-73
2022/04/25 06:17:15;;;;;;;12.77;11.57;;;;;;;6.82;100.00;95020.84;5033202;28;24515;-70
2022/04/25 06:19:41;;;;;;;17.10;15.43;;;;;;;6.87;100.00;95013.69;5032211;28;24463;-74
2022/04/25 06:22:09;;;;;;;15.05;13.73;;;;;;;7.00;100.00;95014.59;5033451;28;24455;-76
2022/04/25 06:24:36;;;;;;;16.38;14.77;;;;;;;7.09;100.00;95008.09;5032764;28;24463;-76
2022/04/25 06:27:05;;;;;;;15.30;13.73;;;;;;;7.30;100.00;95011.06;5032450;28;24447;-75
2022/04/25 06:29:32;;;;;;;18.20;13.80;;;;;;;7.39;100.00;95010.50;5032474;28;20872;-76
2022/04/25 06:32:02;;;;;;;15.75;13.32;;;;;;;7.49;100.00;95008.16;5032219;28;24431;-76
2022/04/25 06:34:28;;;;;;;15.97;14.50;;;;;;;7.39;100.00;95007.94;5033134;28;20818;-76
2022/04/25 06:36:55;;;;;;;16.53;14.93;;;;;;;7.49;100.00;95010.75;5033307;28;20765;-76
2022/04/25 06:39:22;;;;;;;20.58;15.40;;;;;;;7.41;100.00;95018.94;5030185;28;24539;-74
2022/04/25 06:41:48;;;;;;;16.95;15.25;;;;;;;7.47;100.00;95010.03;5031081;28;24458;-73
2022/04/25 06:44:16;;;;;;;18.00;16.25;;;;;;;7.37;100.00;95024.41;5031520;28;24436;-74
2022/04/25 06:46:43;;;;;;;16.92;15.27;;;;;;;7.26;100.00;95027.63;5031580;28;24509;-74
2022/04/25 06:49:23;;;;;;;17.33;15.75;;;;;;;7.16;100.00;95032.53;5031799;28;24895;-75
2022/04/25 06:51:50;;;;;;;17.50;15.70;;;;;;;7.23;100.00;95027.81;5031199;28;20796;-75
2022/04/25 06:54:17;;;;;;;17.40;15.70;;;;;;;7.28;100.00;95025.81;5031982;28;20780;-75
2022/04/25 06:56:44;;;;;;;16.15;14.55;;;;;;;7.47;100.00;95028.88;5031770;28;20807;-75
2022/04/25 06:59:10;;;;;;;16.88;15.20;;;;;;;7.67;100.00;95025.03;5030464;28;24440;-75
2022/04/25 07:01:39;;;;;;;16.58;15.02;;;;;;;7.88;100.00;95020.28;5030026;28;24498;-74
2022/04/25 07:04:06;;;;;;;18.13;16.33;;;;;;;8.30;100.00;95026.16;5030604;28;20787;-74
2022/04/25 07:06:32;;;;;;;16.75;15.20;;;;;;;8.53;100.00;95026.41;5042460;28;20806;-74
2022/04/25 07:08:59;;;;;;;15.90;14.50;;;;;;;8.47;100.00;95030.25;5044614;28;24445;-76
2022/04/25 07:11:25;;;;;;;17.10;15.45;;;;;;;8.19;100.00;95031.19;5033695;28;20772;-76
2022/04/25 07:13:52;;;;;;;15.98;14.27;;;;;;;8.26;100.00;95027.28;5032795;28;20796;-74
2022/04/25 07:16:18;;;;;;;21.13;14.82;;;;;;;8.10;100.00;95032.63;5032403;28;20784;-77
2022/04/25 07:18:46;;;;;;;15.77;14.15;;;;;;;8.00;100.00;95047.84;5031668;28;21194;-75
2022/04/25 07:29:22;;;;;;;15.02;13.52;;;;;;;8.23;100.00;95032.63;5027252;28;20673;-75
2022/04/25 07:31:51;;;;;;;15.73;13.38;;;;;;;8.21;100.00;95030.19;5011615;28;24423;-76
2022/04/25 07:34:19;;;;;;;15.13;13.82;;;;;;;8.33;100.00;95031.13;5030009;28;20792;-75
2022/04/25 07:36:51;;;;;;;14.50;13.10;;;;;;;8.34;100.00;95035.34;5031763;28;21238;-76
2022/04/25 07:39:17;;;;;;;13.57;12.27;;;;;;;8.41;100.00;95031.47;5031437;28;20697;-76
2022/04/25 07:41:44;;;;;;;15.30;13.73;;;;;;;8.62;100.00;95026.66;5027480;28;24449;-75
2022/04/25 07:44:11;;;;;;;14.93;13.55;;;;;;;9.05;100.00;95034.09;5030715;28;20830;-76
2022/04/25 07:46:40;;;;;;;16.02;14.50;;;;;;;9.13;100.00;95029.22;5023767;28;24447;-76
2022/04/25 07:49:07;;;;;;;15.98;14.48;;;;;;;9.11;100.00;95020.72;5020240;28;20768;-76
2022/04/25 07:51:34;;;;;;;14.85;13.35;;;;;;;9.49;100.00;95026.75;5031112;28;24786;-76
2022/04/25 07:54:01;;;;;;;15.85;14.30;;;;;;;9.86;100.00;95030.97;5031352;28;25001;-75
2022/04/25 07:56:27;;;;;;;14.45;13.05;;;;;;;10.08;100.00;95025.06;5027812;28;24990;-77
2022/04/25 07:58:54;;;;;;;13.85;12.48;;;;;;;10.25;100.00;95036.81;5026249;28;25004;-76
2022/04/25 08:01:21;;;;;;;13.23;12.02;;;;;;;10.26;100.00;95032.44;5027457;28;25211;-74
2022/04/25 08:03:47;;;;;;;13.00;11.85;;;;;;;10.07;100.00;95036.34;5030426;28;24435;-76
2022/04/25 08:06:13;;;;;;;12.60;11.30;;;;;;;10.19;100.00;95039.78;5030808;28;24432;-75
2022/04/25 08:08:42;;;;;;;13.98;12.55;;;;;;;10.39;100.00;95051.34;5025965;28;25019;-76
2022/04/25 08:11:11;;;;;;;13.90;12.35;;;;;;;10.06;100.00;95052.00;5023763;28;24977;-77
2022/04/25 08:19:13;;;;;;;13.95;12.50;;;;;;;9.69;100.00;95058.03;5029121;28;24516;-75
2022/04/25 08:21:39;;;;;;;16.10;12.88;;;;;;;9.40;100.00;95059.22;5028232;28;24986;-74
2022/04/25 08:24:07;;;;;;;16.75;12.38;;;;;;;9.32;100.00;95064.94;5029534;28;24443;-75
2022/04/25 08:26:34;;;;;;;14.35;12.95;;;;;;;9.17;100.00;95066.00;5029119;28;24435;-73
2022/04/25 08:29:01;;;;;;;14.60;12.80;;;;;;;9.06;100.00;95065.91;5030078;28;24424;-74
2022/04/25 08:31:28;;;;;;;14.65;13.23;;;;;;;9.07;100.00;95075.28;5027552;28;24498;-74
2022/04/25 08:33:54;;;;;;;14.32;12.82;;;;;;;8.97;100.00;95077.66;5020740;28;24532;-74
2022/04/25 08:36:21;;;;;;;13.25;12.05;;;;;;;8.90;100.00;95079.03;5030502;28;24420;-74
2022/04/25 08:38:47;;;;;;;13.00;11.82;;;;;;;8.92;100.00;95077.97;5030526;28;21147;-74
2022/04/25 08:41:16;;;;;;;12.20;11.00;;;;;;;8.98;100.00;95076.75;5030190;28;24442;-75
2022/04/25 08:43:44;;;;;;;12.45;11.35;;;;;;;9.05;100.00;95075.41;5030189;28;20752;-74
2022/04/25 08:46:12;;;;;;;12.73;11.48;;;;;;;9.20;100.00;95078.72;5030668;28;20765;-75
2022/04/25 08:48:39;;;;;;;13.30;12.00;;;;;;;9.23;100.00;95081.06;5030457;28;20837;-75
2022/04/25 08:51:06;;;;;;;14.20;11.82;;;;;;;9.40;100.00;95085.91;5030090;28;20756;-75
2022/04/25 08:53:33;;;;;;;10.98;10.07;;;;;;;9.46;100.00;95082.09;5028703;28;24428;-77
2022/04/25 08:56:00;;;;;;;13.43;12.02;;;;;;;9.49;100.00;95089.59;5029925;28;24435;-76
2022/04/25 08:58:29;;;;;;;12.23;10.70;;;;;;;9.69;100.00;95091.63;5030049;28;20776;-74
2022/04/25 09:00:56;;;;;;;12.20;10.93;;;;;;;10.09;100.00;95101.75;5029896;28;20817;-73
2022/04/25 09:03:24;;;;;;;15.48;11.55;;;;;;;9.97;100.00;95100.03;5029132;28;24463;-71
2022/04/25 09:05:51;;;;;;;11.02;9.95;;;;;;;10.05;100.00;95097.75;5028559;28;24443;-71
2022/04/25 09:08:17;;;;;;;12.35;10.82;;;;;;;10.12;100.00;95106.72;5028747;28;24446;-77
2022/04/25 09:10:45;;;;;;;12.45;10.43;;;;;;;10.17;100.00;95109.78;5030531;28;24461;-75
2022/04/25 09:13:12;;;;;;;12.80;10.55;;;;;;;10.21;100.00;95110.41;5029728;28;24497;-75
2022/04/25 09:15:40;;;;;;;11.85;10.75;;;;;;;10.16;100.00;95102.97;5029645;28;24478;-75
2022/04/25 09:18:06;;;;;;;11.25;10.25;;;;;;;10.28;100.00;95113.41;5028986;28;24432;-74
2022/04/25 09:20:34;;;;;;;13.48;10.35;;;;;;;10.29;100.00;95115.06;5029738;28;24436;-75
2022/04/25 09:23:00;;;;;;;11.27;9.70;;;;;;;10.47;100.00;95112.91;5028450;28;24466;-75
2022/04/25 09:25:27;;;;;;;11.13;10.20;;;;;;;10.42;100.00;95113.25;5030692;28;24439;-74
2022/04/25 09:28:07;;;;;;;11.87;10.30;;;;;;;10.83;100.00;95109.38;5033607;28;24840;-74
2022/04/25 09:30:34;;;;;;;12.48;11.18;;;;;;;11.19;100.00;95118.72;5033739;28;24439;-74
2022/04/25 09:33:02;;;;;;;11.93;10.50;;;;;;;10.96;100.00;95117.88;5025884;28;24451;-74
2022/04/25 09:35:32;;;;;;;11.63;10.52;;;;;;;10.65;100.00;95119.31;5013681;28;24455;-74
2022/04/25 09:38:00;;;;;;;12.10;10.80;;;;;;;10.61;100.00;95123.09;5013924;28;24486;-75
2022/04/25 09:40:29;;;;;;;11.13;10.02;;;;;;;10.47;100.00;95123.25;5013703;28;24527;-74
2022/04/25 09:43:05;;;;;;;10.95;9.93;;;;;;;10.27;100.00;95122.09;5027941;28;24574;-75
2022/04/25 09:45:32;;;;;;;11.18;10.07;;;;;;;10.23;100.00;95124.03;5032833;28;24973;-75
2022/04/25 09:47:59;;;;;;;11.20;10.00;;;;;;;10.12;100.00;95123.97;5033292;28;24455;-78
2022/04/25 09:50:28;;;;;;;10.85;9.70;;;;;;;10.10;100.00;95136.22;5033255;28;24976;-75
2022/04/25 09:52:57;;;;;;;11.75;10.02;;;;;;;10.04;100.00;95132.28;5033083;28;24419;-75
2022/04/25 09:55:26;;;;;;;11.43;10.25;;;;;;;10.01;100.00;95136.84;5033470;28;24420;-74
2022/04/25 09:57:53;;;;;;;11.75;10.60;;;;;;;9.88;100.00;95140.31;5033260;28;24432;-75
2022/04/25 10:00:32;;;;;;;11.05;9.95;;;;;;;9.88;100.00;95135.13;5033140;28;24538;-75
2022/04/25 10:03:00;;;;;;;12.90;10.82;;;;;;;9.90;100.00;95141.03;5033370;28;24502;-75
2022/04/25 10:05:39;;;;;;;14.57;10.13;;;;;;;9.87;100.00;95140.44;5033069;28;24435;-75
2022/04/25 10:08:07;;;;;;;13.10;10.90;;;;;;;9.74;100.00;95143.03;5032968;28;20760;-75
2022/04/25 10:10:34;;;;;;;11.82;10.63;;;;;;;9.74;100.00;95145.59;5033442;28;24451;-76
2022/04/25 10:13:01;;;;;;;11.75;10.55;;;;;;;9.69;100.00;95152.88;5038464;28;21392;-76
2022/04/25 10:15:27;;;;;;;12.50;10.95;;;;;;;9.62;100.00;95151.63;5036721;28;24849;-74
2022/04/25 10:17:55;;;;;;;11.95;10.73;;;;;;;9.56;100.00;95152.03;5033609;28;20780;-74
2022/04/25 10:20:22;;;;;;;13.00;10.98;;;;;;;9.47;100.00;95148.34;5032976;28;20772;-74
2022/04/25 10:22:50;;;;;;;13.75;11.55;;;;;;;9.39;100.00;95155.78;5032407;28;20819;-74
2022/04/25 10:25:16;;;;;;;11.32;10.25;;;;;;;9.41;100.00;95154.75;5032095;28;24436;-74
2022/04/25 10:27:45;;;;;;;11.25;10.15;;;;;;;9.43;100.00;95158.06;5031657;28;20802;-74
2022/04/25 10:30:16;;;;;;;10.55;9.45;;;;;;;9.48;100.00;95160.31;5028528;28;20768;-74
2022/04/25 10:32:43;;;;;;;10.32;9.25;;;;;;;9.47;100.00;95161.28;5032161;28;20839;-74
2022/04/25 10:35:14;;;;;;;9.98;8.98;;;;;;;9.30;100.00;95161.56;5031911;28;24436;-74
2022/04/25 10:37:43;;;;;;;9.25;8.35;;;;;;;9.32;100.00;95163.13;5030710;28;20815;-75
2022/04/25 10:40:13;;;;;;;9.00;8.10;;;;;;;9.05;100.00;95163.22;5031388;28;24976;-74
2022/04/25 10:45:58;;;;;;;8.98;8.10;;;;;;;9.11;100.00;95169.72;5030383;28;24539;-75
2022/04/25 10:48:25;;;;;;;10.30;9.30;;;;;;;9.15;100.00;95169.41;5031022;28;20773;-75
2022/04/25 10:51:12;;;;;;;11.73;8.33;;;;;;;9.02;100.00;95175.53;5029752;28;24794;-73
2022/04/25 10:53:59;;;;;;;9.38;8.23;;;;;;;8.95;100.00;95175.09;5030365;28;20789;-74
2022/04/25 10:56:27;;;;;;;8.98;8.07;;;;;;;9.05;100.00;95177.88;5030493;28;20714;-74
2022/04/25 10:59:22;;;;;;;7.90;7.20;;;;;;;9.11;100.00;95173.13;5030846;28;20844;-74
2022/04/25 11:01:48;;;;;;;8.35;6.60;;;;;;;9.08;100.00;95177.69;5022307;28;20834;-73
2022/04/25 11:04:17;;;;;;;8.45;7.65;;;;;;;9.26;100.00;95179.03;5028629;28;21812;-73
2022/04/25 11:06:43;;;;;;;7.75;7.10;;;;;;;9.44;100.00;95169.22;5030625;28;20765;-73
2022/04/25 11:09:10;;;;;;;7.88;7.07;;;;;;;9.47;100.00;95186.28;5030255;28;20776;-75
2022/04/25 11:11:49;;;;;;;7.20;6.20;;;;;;;9.45;100.00;95187.22;5029746;28;20769;-74
2022/04/25 11:14:16;;;;;;;5.82;5.22;;;;;;;9.56;100.00;95188.25;5021170;28;24443;-74
2022/04/25 11:17:04;;;;;;;6.25;5.57;;;;;;;9.64;100.00;95180.78;5030176;28;20777;-74
2022/04/25 11:19:45;;;;;;;7.23;5.93;;;;;;;9.67;100.00;95185.75;5029622;28;24443;-74
2022/04/25 11:22:31;;;;;;;6.45;5.75;;;;;;;9.78;100.00;95178.06;5019036;28;24447;-74
2022/04/25 11:24:57;;;;;;;7.20;6.50;;;;;;;9.82;100.00;95178.69;5029804;28;24873;-74
2022/04/25 11:27:25;;;;;;;7.45;6.13;;;;;;;9.88;100.00;95180.88;5030141;28;24849;-74
2022/04/25 11:30:13;;;;;;;6.93;6.22;;;;;;;9.83;100.00;95186.38;5030488;28;24444;-74
2022/04/25 11:32:43;;;;;;;8.63;5.43;;;;;;;9.79;100.00;95189.25;5030353;28;24443;-74
2022/04/25 11:35:11;;;;;;;7.55;6.85;;;;;;;10.03;100.00;95190.16;5030313;28;24435;-73
2022/04/25 11:37:37;;;;;;;6.10;5.50;;;;;;;10.08;100.00;95193.22;5030802;28;24438;-73
2022/04/25 11:40:06;;;;;;;5.77;5.17;;;;;;;10.24;100.00;95197.34;5030622;28;24486;-74
2022/04/25 11:42:36;;;;;;;9.57;5.20;;;;;;;10.56;100.00;95192.47;5006568;28;781005;-74
2022/04/25 11:45:04;;;;;;;4.88;4.30;;;;;;;10.73;100.00;95196.47;5042017;28;24448;-74
2022/04/25 11:47:32;;;;;;;6.32;5.40;;;;;;;10.72;100.00;95184.47;5030917;28;24837;-73
2022/04/25 11:50:00;;;;;;;4.57;4.18;;;;;;;10.86;100.00;95189.44;5031179;28;24462;-74
2022/04/25 11:52:27;;;;;;;4.23;3.83;;;;;;;10.88;100.00;95187.56;5030307;28;24536;-74
2022/04/25 11:54:55;;;;;;;4.53;3.83;;;;;;;10.88;100.00;95200.53;5030033;28;24443;-73